sensor_id;sensor_type;location;lat;lon;timestamp;pressure;altitude;pressure_sealevel;temperature;humidity
21109;BME280;10712;52.944;9.098;2023-01-05T00:01:05;100793.56;;;18.53;53.01
21109;BME280;10712;52.944;9.098;2023-01-05T00:03:32;100774.66;;;18.43;53.33
21109;BME280;10712;52.944;9.098;2023-01-05T00:06:08;100800.50;;;18.05;54.16
21109;BME280;10712;52.944;9.098;2023-01-05T00:08:35;100804.34;;;18.43;53.27
21109;BME280;10712;52.944;9.098;2023-01-05T00:11:24;100806.53;;;18.19;54.26
21109;BME280;10712;52.944;9.098;2023-01-05T00:14:23;100805.78;;;18.07;54.31
21109;BME280;10712;52.944;9.098;2023-01-05T00:17:17;100807.03;;;18.43;53.37
21109;BME280;10712;52.944;9.098;2023-01-05T00:20:05;100804.22;;;18.04;54.48
21109;BME280;10712;52.944;9.098;2023-01-05T00:22:52;100813.63;;;18.20;54.04
21109;BME280;10712;52.944;9.098;2023-01-05T00:25:26;100808.84;;;18.33;53.88
21109;BME280;10712;52.944;9.098;2023-01-05T00:27:52;100808.56;;;18.36;53.70
21109;BME280;10712;52.944;9.098;2023-01-05T00:30:22;100804.97;;;18.56;53.58
21109;BME280;10712;52.944;9.098;2023-01-05T00:32:48;100814.69;;;18.38;54.21
21109;BME280;10712;52.944;9.098;2023-01-05T00:35:15;100811.44;;;18.44;54.52
21109;BME280;10712;52.944;9.098;2023-01-05T00:37:42;100813.38;;;18.23;55.46
21109;BME280;10712;52.944;9.098;2023-01-05T00:40:13;100807.00;;;18.24;55.65
21109;BME280;10712;52.944;9.098;2023-01-05T00:42:39;100805.16;;;18.34;55.71
21109;BME280;10712;52.944;9.098;2023-01-05T00:45:09;100806.25;;;18.22;56.04
21109;BME280;10712;52.944;9.098;2023-01-05T00:47:35;100811.09;;;18.28;55.85
21109;BME280;10712;52.944;9.098;2023-01-05T00:50:01;100812.38;;;18.24;55.90
21109;BME280;10712;52.944;9.098;2023-01-05T00:52:27;100809.31;;;18.07;56.68
21109;BME280;10712;52.944;9.098;2023-01-05T00:54:53;100814.91;;;18.16;56.52
21109;BME280;10712;52.944;9.098;2023-01-05T00:57:19;100815.53;;;17.98;57.23
21109;BME280;10712;52.944;9.098;2023-01-05T00:59:44;100815.25;;;18.01;57.25
21109;BME280;10712;52.944;9.098;2023-01-05T01:02:10;100824.16;;;17.92;57.81
21109;BME280;10712;52.944;9.098;2023-01-05T01:04:37;100826.09;;;18.11;57.44
21109;BME280;10712;52.944;9.098;2023-01-05T01:07:04;100826.03;;;18.01;57.86
21109;BME280;10712;52.944;9.098;2023-01-05T01:09:30;100822.28;;;17.83;58.54
21109;BME280;10712;52.944;9.098;2023-01-05T01:11:57;100820.34;;;17.95;58.35
21109;BME280;10712;52.944;9.098;2023-01-05T01:14:23;100827.13;;;17.89;58.45
21109;BME280;10712;52.944;9.098;2023-01-05T01:16:49;100838.16;;;17.86;58.77
21109;BME280;10712;52.944;9.098;2023-01-05T01:19:21;100854.75;;;17.82;58.97
21109;BME280;10712;52.944;9.098;2023-01-05T01:21:48;100850.22;;;17.82;58.97
21109;BME280;10712;52.944;9.098;2023-01-05T01:24:17;100843.56;;;17.86;58.88
21109;BME280;10712;52.944;9.098;2023-01-05T01:26:44;100838.72;;;17.80;59.17
21109;BME280;10712;52.944;9.098;2023-01-05T01:29:10;100846.25;;;17.86;58.86
21109;BME280;10712;52.944;9.098;2023-01-05T01:31:36;100854.44;;;17.75;58.83
21109;BME280;10712;52.944;9.098;2023-01-05T01:34:04;100861.88;;;17.62;59.25
21109;BME280;10712;52.944;9.098;2023-01-05T01:36:30;100855.94;;;17.68;58.88
21109;BME280;10712;52.944;9.098;2023-01-05T01:38:56;100858.34;;;17.71;58.68
21109;BME280;10712;52.944;9.098;2023-01-05T01:41:22;100864.22;;;17.76;58.43
21109;BME280;10712;52.944;9.098;2023-01-05T01:43:52;100868.16;;;17.72;58.56
21109;BME280;10712;52.944;9.098;2023-01-05T01:46:22;100865.25;;;17.64;58.77
21109;BME280;10712;52.944;9.098;2023-01-05T01:48:59;100870.47;;;17.77;58.38
21109;BME280;10712;52.944;9.098;2023-01-05T01:54:04;100864.38;;;17.84;58.19
21109;BME280;10712;52.944;9.098;2023-01-05T01:56:43;100874.81;;;17.57;58.76
21109;BME280;10712;52.944;9.098;2023-01-05T01:59:11;100877.81;;;17.43;58.97
21109;BME280;10712;52.944;9.098;2023-01-05T02:01:38;100870.22;;;17.48;58.63
21109;BME280;10712;52.944;9.098;2023-01-05T02:04:05;100878.25;;;17.59;58.43
21109;BME280;10712;52.944;9.098;2023-01-05T02:06:32;100875.72;;;17.25;59.18
21109;BME280;10712;52.944;9.098;2023-01-05T02:08:58;100884.28;;;17.51;58.54
21109;BME280;10712;52.944;9.098;2023-01-05T02:14:22;100885.94;;;17.63;57.76
21109;BME280;10712;52.944;9.098;2023-01-05T02:17:03;100881.69;;;17.61;57.93
21109;BME280;10712;52.944;9.098;2023-01-05T02:20:11;100872.84;;;17.59;58.00
21109;BME280;10712;52.944;9.098;2023-01-05T02:23:17;100884.13;;;17.64;57.68
21109;BME280;10712;52.944;9.098;2023-01-05T02:26:49;100884.72;;;17.56;57.73
21109;BME280;10712;52.944;9.098;2023-01-05T02:29:40;100884.88;;;17.34;58.47
21109;BME280;10712;52.944;9.098;2023-01-05T02:32:47;100881.75;;;17.70;57.20
21109;BME280;10712;52.944;9.098;2023-01-05T02:40:48;100885.69;;;17.66;57.13
21109;BME280;10712;52.944;9.098;2023-01-05T02:43:18;100882.59;;;17.71;56.87
21109;BME280;10712;52.944;9.098;2023-01-05T02:45:47;100878.53;;;17.56;57.61
21109;BME280;10712;52.944;9.098;2023-01-05T02:48:14;100893.34;;;17.82;56.80
21109;BME280;10712;52.944;9.098;2023-01-05T02:51:05;100888.94;;;17.81;57.02
21109;BME280;10712;52.944;9.098;2023-01-05T02:53:45;100894.06;;;17.52;58.45
21109;BME280;10712;52.944;9.098;2023-01-05T02:56:22;100895.47;;;17.47;58.66
21109;BME280;10712;52.944;9.098;2023-01-05T02:59:00;100888.03;;;17.60;58.54
21109;BME280;10712;52.944;9.098;2023-01-05T03:01:35;100901.38;;;17.29;59.90
21109;BME280;10712;52.944;9.098;2023-01-05T03:04:09;100895.63;;;17.66;58.85
21109;BME280;10712;52.944;9.098;2023-01-05T03:09:26;100899.63;;;17.71;58.54
21109;BME280;10712;52.944;9.098;2023-01-05T03:12:33;100910.19;;;17.63;58.81
21109;BME280;10712;52.944;9.098;2023-01-05T03:15:24;100908.75;;;17.27;59.75
21109;BME280;10712;52.944;9.098;2023-01-05T03:17:59;100903.13;;;17.62;58.82
21109;BME280;10712;52.944;9.098;2023-01-05T03:20:32;100914.59;;;17.64;58.53
21109;BME280;10712;52.944;9.098;2023-01-05T03:23:04;100917.06;;;17.88;57.85
21109;BME280;10712;52.944;9.098;2023-01-05T03:25:51;100908.25;;;17.65;58.04
21109;BME280;10712;52.944;9.098;2023-01-05T03:31:46;100913.06;;;17.51;57.99
21109;BME280;10712;52.944;9.098;2023-01-05T03:34:58;100911.53;;;17.69;57.59
21109;BME280;10712;52.944;9.098;2023-01-05T03:38:22;100914.88;;;17.61;57.64
21109;BME280;10712;52.944;9.098;2023-01-05T03:40:57;100912.53;;;17.57;57.51
21109;BME280;10712;52.944;9.098;2023-01-05T03:43:25;100916.94;;;17.58;57.49
21109;BME280;10712;52.944;9.098;2023-01-05T03:45:56;100921.28;;;17.49;57.64
21109;BME280;10712;52.944;9.098;2023-01-05T03:48:27;100938.63;;;17.56;57.62
21109;BME280;10712;52.944;9.098;2023-01-05T03:50:54;100935.06;;;17.67;57.11
21109;BME280;10712;52.944;9.098;2023-01-05T03:53:21;100931.84;;;17.41;57.32
21109;BME280;10712;52.944;9.098;2023-01-05T03:55:48;100930.19;;;17.61;56.73
21109;BME280;10712;52.944;9.098;2023-01-05T03:58:14;100941.19;;;17.58;56.63
21109;BME280;10712;52.944;9.098;2023-01-05T04:00:45;100935.34;;;17.53;56.48
21109;BME280;10712;52.944;9.098;2023-01-05T04:03:13;100937.03;;;17.65;56.02
21109;BME280;10712;52.944;9.098;2023-01-05T04:05:38;100942.53;;;17.84;55.41
21109;BME280;10712;52.944;9.098;2023-01-05T04:08:05;100940.25;;;17.48;55.90
21109;BME280;10712;52.944;9.098;2023-01-05T04:10:34;100936.31;;;17.52;55.84
21109;BME280;10712;52.944;9.098;2023-01-05T04:13:00;100953.72;;;18.00;54.55
21109;BME280;10712;52.944;9.098;2023-01-05T04:15:26;100947.91;;;17.95;54.66
21109;BME280;10712;52.944;9.098;2023-01-05T04:17:54;100950.84;;;17.92;54.72
21109;BME280;10712;52.944;9.098;2023-01-05T04:20:19;100952.09;;;18.09;54.32
21109;BME280;10712;52.944;9.098;2023-01-05T04:22:46;100948.75;;;17.75;54.84
21109;BME280;10712;52.944;9.098;2023-01-05T04:25:12;100957.50;;;17.88;54.35
21109;BME280;10712;52.944;9.098;2023-01-05T04:27:41;100962.56;;;18.02;54.01
21109;BME280;10712;52.944;9.098;2023-01-05T04:30:08;100961.69;;;18.02;53.98
21109;BME280;10712;52.944;9.098;2023-01-05T04:32:37;100976.34;;;17.88;54.44
21109;BME280;10712;52.944;9.098;2023-01-05T04:35:03;100968.72;;;17.93;54.01
21109;BME280;10712;52.944;9.098;2023-01-05T04:37:33;100973.88;;;17.96;53.82
21109;BME280;10712;52.944;9.098;2023-01-05T04:39:59;100966.63;;;18.18;53.44
21109;BME280;10712;52.944;9.098;2023-01-05T04:42:26;100982.16;;;18.04;53.68
21109;BME280;10712;52.944;9.098;2023-01-05T04:44:54;100976.03;;;18.02;53.57
21109;BME280;10712;52.944;9.098;2023-01-05T04:47:20;100974.88;;;17.84;54.00
21109;BME280;10712;52.944;9.098;2023-01-05T04:49:48;100974.97;;;17.73;54.12
21109;BME280;10712;52.944;9.098;2023-01-05T04:52:15;100978.66;;;17.93;54.07
21109;BME280;10712;52.944;9.098;2023-01-05T04:54:42;100982.94;;;17.95;53.94
21109;BME280;10712;52.944;9.098;2023-01-05T04:57:08;100992.66;;;18.07;53.73
21109;BME280;10712;52.944;9.098;2023-01-05T04:59:34;100990.94;;;18.06;54.01
21109;BME280;10712;52.944;9.098;2023-01-05T05:02:02;101004.75;;;17.92;54.42
21109;BME280;10712;52.944;9.098;2023-01-05T05:04:30;101001.34;;;17.90;54.92
21109;BME280;10712;52.944;9.098;2023-01-05T05:06:57;101005.28;;;17.86;55.00
21109;BME280;10712;52.944;9.098;2023-01-05T05:09:26;101001.06;;;17.93;54.97
21109;BME280;10712;52.944;9.098;2023-01-05T05:11:53;101005.03;;;17.89;54.91
21109;BME280;10712;52.944;9.098;2023-01-05T05:14:21;101013.03;;;18.00;54.79
21109;BME280;10712;52.944;9.098;2023-01-05T05:16:47;101018.44;;;18.00;54.73
21109;BME280;10712;52.944;9.098;2023-01-05T05:19:13;101017.41;;;17.49;56.14
21109;BME280;10712;52.944;9.098;2023-01-05T05:21:39;101009.34;;;17.81;55.39
21109;BME280;10712;52.944;9.098;2023-01-05T05:24:05;101014.84;;;17.79;55.76
21109;BME280;10712;52.944;9.098;2023-01-05T05:26:35;101023.16;;;17.87;55.43
21109;BME280;10712;52.944;9.098;2023-01-05T05:29:01;101021.28;;;17.67;56.17
21109;BME280;10712;52.944;9.098;2023-01-05T05:31:27;101027.91;;;17.52;56.87
21109;BME280;10712;52.944;9.098;2023-01-05T05:33:52;101030.38;;;17.44;57.35
21109;BME280;10712;52.944;9.098;2023-01-05T05:36:18;101036.94;;;17.73;56.44
21109;BME280;10712;52.944;9.098;2023-01-05T05:38:44;101040.59;;;17.72;56.52
21109;BME280;10712;52.944;9.098;2023-01-05T05:41:10;101043.06;;;17.64;56.61
21109;BME280;10712;52.944;9.098;2023-01-05T05:43:36;101045.28;;;17.70;56.48
21109;BME280;10712;52.944;9.098;2023-01-05T05:46:02;101046.19;;;17.37;56.94
21109;BME280;10712;52.944;9.098;2023-01-05T05:48:28;101060.00;;;17.44;56.85
21109;BME280;10712;52.944;9.098;2023-01-05T05:50:53;101066.13;;;17.46;56.70
21109;BME280;10712;52.944;9.098;2023-01-05T05:53:19;101067.31;;;17.75;55.76
21109;BME280;10712;52.944;9.098;2023-01-05T05:55:49;101064.75;;;17.51;56.67
21109;BME280;10712;52.944;9.098;2023-01-05T05:58:18;101068.19;;;17.64;56.19
21109;BME280;10712;52.944;9.098;2023-01-05T06:00:45;101082.53;;;17.54;56.64
21109;BME280;10712;52.944;9.098;2023-01-05T06:03:11;101079.94;;;17.63;56.49
21109;BME280;10712;52.944;9.098;2023-01-05T06:05:37;101081.81;;;17.63;56.73
21109;BME280;10712;52.944;9.098;2023-01-05T06:08:03;101092.78;;;17.71;56.58
21109;BME280;10712;52.944;9.098;2023-01-05T06:10:29;101094.03;;;17.56;57.16
21109;BME280;10712;52.944;9.098;2023-01-05T06:12:55;101085.09;;;17.44;57.44
21109;BME280;10712;52.944;9.098;2023-01-05T06:15:22;101094.28;;;17.53;57.11
21109;BME280;10712;52.944;9.098;2023-01-05T06:17:48;101103.34;;;17.52;57.35
21109;BME280;10712;52.944;9.098;2023-01-05T06:20:15;101105.78;;;17.44;57.73
21109;BME280;10712;52.944;9.098;2023-01-05T06:22:42;101111.19;;;17.44;57.66
21109;BME280;10712;52.944;9.098;2023-01-05T06:25:09;101112.41;;;17.51;57.36
21109;BME280;10712;52.944;9.098;2023-01-05T06:27:36;101117.03;;;17.60;57.11
21109;BME280;10712;52.944;9.098;2023-01-05T06:30:03;101120.50;;;17.62;57.17
21109;BME280;10712;52.944;9.098;2023-01-05T06:32:32;101124.88;;;17.52;57.31
21109;BME280;10712;52.944;9.098;2023-01-05T06:35:01;101115.81;;;17.53;57.03
21109;BME280;10712;52.944;9.098;2023-01-05T06:37:26;101125.16;;;17.49;57.19
21109;BME280;10712;52.944;9.098;2023-01-05T06:39:52;101124.66;;;17.55;56.88
21109;BME280;10712;52.944;9.098;2023-01-05T06:42:20;101133.22;;;17.60;56.68
21109;BME280;10712;52.944;9.098;2023-01-05T06:44:46;101130.91;;;17.55;56.72
21109;BME280;10712;52.944;9.098;2023-01-05T06:47:12;101141.56;;;17.68;56.39
21109;BME280;10712;52.944;9.098;2023-01-05T06:49:38;101151.84;;;17.74;56.31
21109;BME280;10712;52.944;9.098;2023-01-05T06:52:04;101155.53;;;17.62;56.72
21109;BME280;10712;52.944;9.098;2023-01-05T06:54:30;101153.06;;;17.48;57.41
21109;BME280;10712;52.944;9.098;2023-01-05T06:56:56;101161.16;;;17.48;57.49
21109;BME280;10712;52.944;9.098;2023-01-05T06:59:21;101170.44;;;17.44;57.74
21109;BME280;10712;52.944;9.098;2023-01-05T07:01:47;101164.69;;;17.48;57.57
21109;BME280;10712;52.944;9.098;2023-01-05T07:04:13;101172.28;;;17.43;58.02
21109;BME280;10712;52.944;9.098;2023-01-05T07:06:38;101173.88;;;17.46;57.63
21109;BME280;10712;52.944;9.098;2023-01-05T07:09:04;101173.75;;;17.58;57.32
21109;BME280;10712;52.944;9.098;2023-01-05T07:11:31;101184.88;;;17.43;57.45
21109;BME280;10712;52.944;9.098;2023-01-05T07:13:56;101208.41;;;17.41;57.68
21109;BME280;10712;52.944;9.098;2023-01-05T07:16:22;101205.72;;;17.52;57.33
21109;BME280;10712;52.944;9.098;2023-01-05T07:18:48;101208.16;;;17.44;57.56
21109;BME280;10712;52.944;9.098;2023-01-05T07:21:14;101208.75;;;17.58;57.19
21109;BME280;10712;52.944;9.098;2023-01-05T07:23:39;101211.59;;;17.46;57.36
21109;BME280;10712;52.944;9.098;2023-01-05T07:26:07;101220.41;;;17.48;57.58
21109;BME280;10712;52.944;9.098;2023-01-05T07:28:35;101220.53;;;17.46;57.76
21109;BME280;10712;52.944;9.098;2023-01-05T07:31:02;101222.00;;;17.39;57.94
21109;BME280;10712;52.944;9.098;2023-01-05T07:33:28;101220.38;;;17.25;58.28
21109;BME280;10712;52.944;9.098;2023-01-05T07:35:54;101222.72;;;17.30;58.27
21109;BME280;10712;52.944;9.098;2023-01-05T07:38:20;101233.13;;;17.35;57.93
21109;BME280;10712;52.944;9.098;2023-01-05T07:40:45;101232.84;;;17.15;58.35
21109;BME280;10712;52.944;9.098;2023-01-05T07:43:11;101239.22;;;17.14;58.46
21109;BME280;10712;52.944;9.098;2023-01-05T07:45:37;101252.22;;;17.31;58.17
21109;BME280;10712;52.944;9.098;2023-01-05T07:48:04;101256.78;;;17.42;57.87
21109;BME280;10712;52.944;9.098;2023-01-05T07:50:30;101250.75;;;17.27;58.11
21109;BME280;10712;52.944;9.098;2023-01-05T07:52:58;101266.66;;;17.19;58.20
21109;BME280;10712;52.944;9.098;2023-01-05T07:55:24;101265.94;;;17.40;57.63
21109;BME280;10712;52.944;9.098;2023-01-05T07:57:50;101264.00;;;17.42;57.39
21109;BME280;10712;52.944;9.098;2023-01-05T08:00:16;101272.25;;;17.16;58.02
21109;BME280;10712;52.944;9.098;2023-01-05T08:02:42;101275.69;;;17.18;57.51
21109;BME280;10712;52.944;9.098;2023-01-05T08:05:09;101276.94;;;17.37;56.98
21109;BME280;10712;52.944;9.098;2023-01-05T08:07:35;101277.69;;;17.27;57.09
21109;BME280;10712;52.944;9.098;2023-01-05T08:10:02;101274.25;;;17.25;57.13
21109;BME280;10712;52.944;9.098;2023-01-05T08:12:46;101280.13;;;17.19;57.15
21109;BME280;10712;52.944;9.098;2023-01-05T08:15:31;101289.38;;;17.15;57.15
21109;BME280;10712;52.944;9.098;2023-01-05T08:17:56;101283.56;;;17.21;57.02
21109;BME280;10712;52.944;9.098;2023-01-05T08:20:22;101293.69;;;17.18;56.85
21109;BME280;10712;52.944;9.098;2023-01-05T08:22:52;101294.06;;;17.13;56.66
21109;BME280;10712;52.944;9.098;2023-01-05T08:25:19;101301.88;;;17.16;56.48
21109;BME280;10712;52.944;9.098;2023-01-05T08:27:46;101308.97;;;17.17;56.19
21109;BME280;10712;52.944;9.098;2023-01-05T08:30:13;101314.63;;;17.14;55.93
21109;BME280;10712;52.944;9.098;2023-01-05T08:32:40;101321.94;;;17.12;55.72
21109;BME280;10712;52.944;9.098;2023-01-05T08:35:06;101324.28;;;17.17;55.65
21109;BME280;10712;52.944;9.098;2023-01-05T08:37:32;101330.72;;;17.03;55.57
21109;BME280;10712;52.944;9.098;2023-01-05T08:39:58;101340.72;;;17.01;55.55
21109;BME280;10712;52.944;9.098;2023-01-05T08:42:24;101342.91;;;16.96;54.90
21109;BME280;10712;52.944;9.098;2023-01-05T08:44:49;101354.41;;;16.87;55.03
21109;BME280;10712;52.944;9.098;2023-01-05T08:47:15;101370.41;;;16.65;54.97
21109;BME280;10712;52.944;9.098;2023-01-05T08:49:41;101376.53;;;16.90;54.50
21109;BME280;10712;52.944;9.098;2023-01-05T08:52:06;101373.97;;;16.89;54.06
21109;BME280;10712;52.944;9.098;2023-01-05T08:54:34;101375.69;;;16.90;54.05
21109;BME280;10712;52.944;9.098;2023-01-05T08:57:00;101389.13;;;16.90;53.94
21109;BME280;10712;52.944;9.098;2023-01-05T08:59:26;101391.72;;;16.91;53.79
21109;BME280;10712;52.944;9.098;2023-01-05T09:01:52;101385.97;;;16.96;53.62
21109;BME280;10712;52.944;9.098;2023-01-05T09:04:18;101400.66;;;16.92;53.49
21109;BME280;10712;52.944;9.098;2023-01-05T09:06:43;101394.47;;;16.79;53.29
21109;BME280;10712;52.944;9.098;2023-01-05T09:09:09;101411.88;;;16.86;53.16
21109;BME280;10712;52.944;9.098;2023-01-05T09:11:35;101414.88;;;16.81;53.10
21109;BME280;10712;52.944;9.098;2023-01-05T09:14:02;101419.56;;;16.79;52.93
21109;BME280;10712;52.944;9.098;2023-01-05T09:16:32;101435.38;;;16.71;53.04
21109;BME280;10712;52.944;9.098;2023-01-05T09:18:59;101430.78;;;16.61;53.18
21109;BME280;10712;52.944;9.098;2023-01-05T09:21:27;101444.63;;;16.54;53.09
21109;BME280;10712;52.944;9.098;2023-01-05T09:23:53;101443.78;;;16.54;53.16
21109;BME280;10712;52.944;9.098;2023-01-05T09:26:19;101457.38;;;16.52;53.19
21109;BME280;10712;52.944;9.098;2023-01-05T09:28:45;101447.31;;;16.54;53.29
21109;BME280;10712;52.944;9.098;2023-01-05T09:31:21;101448.09;;;16.57;53.30
21109;BME280;10712;52.944;9.098;2023-01-05T09:33:47;101454.78;;;16.64;53.12
21109;BME280;10712;52.944;9.098;2023-01-05T09:36:15;101456.41;;;16.66;53.23
21109;BME280;10712;52.944;9.098;2023-01-05T09:38:42;101460.56;;;16.70;53.15
21109;BME280;10712;52.944;9.098;2023-01-05T09:44:32;101469.59;;;16.57;52.94
21109;BME280;10712;52.944;9.098;2023-01-05T09:47:16;101471.22;;;16.72;52.64
21109;BME280;10712;52.944;9.098;2023-01-05T09:49:46;101489.84;;;16.75;52.61
21109;BME280;10712;52.944;9.098;2023-01-05T09:52:13;101487.06;;;16.64;52.39
21109;BME280;10712;52.944;9.098;2023-01-05T09:54:39;101492.44;;;16.64;52.33
21109;BME280;10712;52.944;9.098;2023-01-05T09:57:15;101500.50;;;16.64;52.37
21109;BME280;10712;52.944;9.098;2023-01-05T09:59:46;101504.94;;;16.65;52.39
21109;BME280;10712;52.944;9.098;2023-01-05T10:02:26;101508.34;;;16.67;52.36
21109;BME280;10712;52.944;9.098;2023-01-05T10:04:54;101502.09;;;16.53;52.38
21109;BME280;10712;52.944;9.098;2023-01-05T10:07:41;101500.63;;;16.62;52.17
21109;BME280;10712;52.944;9.098;2023-01-05T10:13:05;101506.66;;;16.66;51.70
21109;BME280;10712;52.944;9.098;2023-01-05T10:15:41;101509.88;;;16.71;51.63
21109;BME280;10712;52.944;9.098;2023-01-05T10:18:23;101521.59;;;16.70;51.56
21109;BME280;10712;52.944;9.098;2023-01-05T10:21:08;101532.56;;;16.67;51.57
21109;BME280;10712;52.944;9.098;2023-01-05T10:23:55;101526.78;;;16.73;51.74
21109;BME280;10712;52.944;9.098;2023-01-05T10:29:32;101539.25;;;16.86;51.52
21109;BME280;10712;52.944;9.098;2023-01-05T10:32:28;101540.63;;;16.67;51.32
21109;BME280;10712;52.944;9.098;2023-01-05T10:35:45;101543.22;;;16.81;51.44
21109;BME280;10712;52.944;9.098;2023-01-05T10:39:19;101542.78;;;16.87;51.56
21109;BME280;10712;52.944;9.098;2023-01-05T10:41:41;101540.94;;;16.87;51.55
21109;BME280;10712;52.944;9.098;2023-01-05T10:44:51;101540.00;;;16.76;51.71
21109;BME280;10712;52.944;9.098;2023-01-05T10:47:22;101544.28;;;16.91;51.78
21109;BME280;10712;52.944;9.098;2023-01-05T10:49:50;101549.56;;;16.92;51.81
21109;BME280;10712;52.944;9.098;2023-01-05T10:52:18;101547.72;;;16.93;51.69
21109;BME280;10712;52.944;9.098;2023-01-05T10:54:59;101552.16;;;16.94;51.83
21109;BME280;10712;52.944;9.098;2023-01-05T11:00:05;101550.41;;;16.93;51.80
21109;BME280;10712;52.944;9.098;2023-01-05T11:02:35;101560.50;;;17.02;51.73
21109;BME280;10712;52.944;9.098;2023-01-05T11:07:54;101558.47;;;17.06;51.36
21109;BME280;10712;52.944;9.098;2023-01-05T11:10:32;101563.44;;;16.99;51.28
21109;BME280;10712;52.944;9.098;2023-01-05T11:13:03;101564.81;;;17.05;51.27
21109;BME280;10712;52.944;9.098;2023-01-05T11:15:34;101563.00;;;17.05;51.22
21109;BME280;10712;52.944;9.098;2023-01-05T11:18:06;101563.03;;;16.92;51.22
21109;BME280;10712;52.944;9.098;2023-01-05T11:20:32;101567.53;;;16.92;51.26
21109;BME280;10712;52.944;9.098;2023-01-05T11:22:57;101563.03;;;16.92;51.24
21109;BME280;10712;52.944;9.098;2023-01-05T11:25:31;101562.38;;;16.89;51.33
21109;BME280;10712;52.944;9.098;2023-01-05T11:28:15;101566.03;;;16.88;51.66
21109;BME280;10712;52.944;9.098;2023-01-05T11:30:59;101564.50;;;16.97;51.32
21109;BME280;10712;52.944;9.098;2023-01-05T11:33:29;101572.25;;;17.01;51.33
21109;BME280;10712;52.944;9.098;2023-01-05T11:35:58;101569.34;;;17.04;51.22
21109;BME280;10712;52.944;9.098;2023-01-05T11:38:27;101568.13;;;17.08;51.42
21109;BME280;10712;52.944;9.098;2023-01-05T11:40:56;101566.00;;;17.13;51.22
21109;BME280;10712;52.944;9.098;2023-01-05T11:43:28;101567.50;;;17.05;51.16
21109;BME280;10712;52.944;9.098;2023-01-05T11:46:04;101574.22;;;16.99;51.25
21109;BME280;10712;52.944;9.098;2023-01-05T11:48:34;101574.19;;;17.12;51.30
21109;BME280;10712;52.944;9.098;2023-01-05T11:51:01;101576.53;;;17.16;50.78
21109;BME280;10712;52.944;9.098;2023-01-05T11:53:38;101571.09;;;17.29;50.91
21109;BME280;10712;52.944;9.098;2023-01-05T11:58:45;101577.81;;;17.23;50.51
21109;BME280;10712;52.944;9.098;2023-01-05T12:01:58;101576.53;;;17.16;50.47
21109;BME280;10712;52.944;9.098;2023-01-05T12:05:03;101582.28;;;17.36;50.32
21109;BME280;10712;52.944;9.098;2023-01-05T12:07:36;101582.84;;;17.41;50.32
21109;BME280;10712;52.944;9.098;2023-01-05T12:10:47;101580.94;;;17.54;50.17
21109;BME280;10712;52.944;9.098;2023-01-05T12:14:05;101584.41;;;17.56;50.32
21109;BME280;10712;52.944;9.098;2023-01-05T12:16:48;101583.72;;;17.65;50.23
21109;BME280;10712;52.944;9.098;2023-01-05T12:28:48;101611.34;;;17.56;50.06
21109;BME280;10712;52.944;9.098;2023-01-05T12:31:18;101612.66;;;17.63;49.65
21109;BME280;10712;52.944;9.098;2023-01-05T12:37:03;101618.94;;;17.75;49.41
21109;BME280;10712;52.944;9.098;2023-01-05T12:42:57;101627.25;;;17.71;48.75
21109;BME280;10712;52.944;9.098;2023-01-05T12:48:48;101627.38;;;17.94;48.20
21109;BME280;10712;52.944;9.098;2023-01-05T12:54:15;101639.25;;;17.91;48.08
21109;BME280;10712;52.944;9.098;2023-01-05T12:56:53;101638.16;;;17.94;48.12
21109;BME280;10712;52.944;9.098;2023-01-05T12:59:31;101629.59;;;18.00;48.20
21109;BME280;10712;52.944;9.098;2023-01-05T13:04:55;101636.63;;;18.02;47.69
21109;BME280;10712;52.944;9.098;2023-01-05T13:07:42;101646.44;;;18.03;47.68
21109;BME280;10712;52.944;9.098;2023-01-05T13:10:32;101655.19;;;17.94;47.26
21109;BME280;10712;52.944;9.098;2023-01-05T13:13:09;101657.31;;;18.02;47.52
21109;BME280;10712;52.944;9.098;2023-01-05T13:16:03;101657.91;;;17.94;47.17
21109;BME280;10712;52.944;9.098;2023-01-05T13:18:36;101666.44;;;17.88;47.20
21109;BME280;10712;52.944;9.098;2023-01-05T13:21:04;101666.91;;;17.82;47.37
21109;BME280;10712;52.944;9.098;2023-01-05T13:23:41;101659.78;;;17.81;47.39
21109;BME280;10712;52.944;9.098;2023-01-05T13:26:19;101674.91;;;17.71;47.65
21109;BME280;10712;52.944;9.098;2023-01-05T13:28:48;101671.47;;;17.69;47.74
21109;BME280;10712;52.944;9.098;2023-01-05T13:34:28;101674.50;;;17.64;47.60
21109;BME280;10712;52.944;9.098;2023-01-05T13:37:36;101669.22;;;17.63;47.50
21109;BME280;10712;52.944;9.098;2023-01-05T13:40:43;101676.00;;;17.56;47.61
21109;BME280;10712;52.944;9.098;2023-01-05T13:54:57;101679.56;;;17.44;47.93
21109;BME280;10712;52.944;9.098;2023-01-05T13:57:40;101681.41;;;17.43;47.94
21109;BME280;10712;52.944;9.098;2023-01-05T14:00:29;101686.91;;;17.42;48.01
21109;BME280;10712;52.944;9.098;2023-01-05T14:03:37;101687.03;;;17.40;47.81
21109;BME280;10712;52.944;9.098;2023-01-05T14:06:16;101697.81;;;17.40;47.99
21109;BME280;10712;52.944;9.098;2023-01-05T14:08:52;101696.69;;;17.43;47.89
21109;BME280;10712;52.944;9.098;2023-01-05T14:11:22;101702.78;;;17.33;47.82
21109;BME280;10712;52.944;9.098;2023-01-05T14:13:56;101707.28;;;17.33;47.89
21109;BME280;10712;52.944;9.098;2023-01-05T14:19:15;101714.09;;;17.26;48.08
21109;BME280;10712;52.944;9.098;2023-01-05T14:24:40;101724.44;;;17.19;48.30
21109;BME280;10712;52.944;9.098;2023-01-05T14:27:18;101724.44;;;17.19;48.40
21109;BME280;10712;52.944;9.098;2023-01-05T14:32:38;101728.63;;;17.11;48.74
21109;BME280;10712;52.944;9.098;2023-01-05T14:35:29;101728.00;;;17.07;48.71
21109;BME280;10712;52.944;9.098;2023-01-05T14:38:05;101726.47;;;17.03;48.83
21109;BME280;10712;52.944;9.098;2023-01-05T14:40:59;101732.06;;;17.00;49.14